Time;durP1;ratioP1;P1;durP2;ratioP2;P2;SDS_P1;SDS_P2;PMS_P1;PMS_P2;Temp;Humidity;BMP_temperature;BMP_pressure;BME280_temperature;BME280_humidity;BME280_pressure;Samples;Min_cycle;Max_cycle;Signal;HPM_P1;HPM_P2
2023/06/16 00:01:36;;;;;;;;;;;21.90;60.40;;;;;;6294538;28;20030;-72
2023/06/16 00:04:37;;;;;;;;;;;21.80;60.40;;;;;;6294190;28;19924;-72
2023/06/16 00:07:37;;;;;;;;;;;21.80;60.40;;;;;;6294754;28;19919;-72
2023/06/16 00:10:38;;;;;;;;;;;21.90;60.40;;;;;;6294487;28;20405;-71
2023/06/16 00:13:38;;;;;;;;;;;21.80;60.40;;;;;;6294965;28;20010;-72
2023/06/16 00:16:39;;;;;;;;;;;21.90;60.50;;;;;;6294508;28;19917;-72
2023/06/16 00:19:40;;;;;;;;;;;21.90;60.50;;;;;;6294446;28;19970;-71
2023/06/16 00:22:41;;;;;;;;;;;21.90;60.50;;;;;;6294399;28;20356;-72
2023/06/16 00:25:42;;;;;;;;;;;21.90;60.50;;;;;;6293998;28;19955;-72
2023/06/16 00:28:42;;;;;;;;;;;21.80;60.50;;;;;;6294866;28;20266;-72
2023/06/16 00:31:43;;;;;;;;;;;21.90;60.50;;;;;;6294085;28;19909;-72
2023/06/16 00:34:45;;;;;;;;;;;21.80;60.40;;;;;;6293920;28;19908;-72
2023/06/16 00:37:46;;;;;;;;;;;21.80;60.50;;;;;;6293822;28;20050;-72
2023/06/16 00:40:46;;;;;;;;;;;21.80;60.40;;;;;;6293867;28;19916;-72
2023/06/16 00:43:47;;;;;;;;;;;21.80;60.50;;;;;;6294535;28;19916;-72
2023/06/16 00:46:47;;;;;;;;;;;21.80;60.90;;;;;;6293689;28;20282;-72
2023/06/16 00:49:48;;;;;;;;;;;21.80;60.50;;;;;;6293782;28;20386;-72
2023/06/16 00:52:49;;;;;;;;;;;21.80;60.50;;;;;;6293570;28;19916;-72
2023/06/16 00:55:50;;;;;;;;;;;21.80;60.50;;;;;;6293614;28;19920;-72
2023/06/16 00:58:51;;;;;;;;;;;21.80;60.50;;;;;;6294390;28;19912;-72
2023/06/16 01:01:52;;;;;;;;;;;21.80;60.50;;;;;;6292522;28;19962;-72
2023/06/16 01:04:54;;;;;;;;;;;21.80;60.50;;;;;;6292107;28;19928;-72
2023/06/16 01:08:03;;;;;;;;;;;21.80;60.50;;;;;;6293472;28;19908;-72
2023/06/16 01:11:07;;;;;;;;;;;21.80;60.60;;;;;;6293372;28;19912;-72
2023/06/16 01:14:10;;;;;;;;;;;21.80;60.50;;;;;;6293459;28;19954;-72
2023/06/16 01:17:11;;;;;;;;;;;21.80;60.50;;;;;;6293721;28;19916;-72
2023/06/16 01:20:17;;;;;;;;;;;21.80;60.50;;;;;;6293199;28;20375;-72
2023/06/16 01:23:29;;;;;;;;;;;21.80;60.50;;;;;;6293303;28;20008;-72
2023/06/16 01:26:31;;;;;;;;;;;21.80;60.60;;;;;;6292860;28;19956;-72
2023/06/16 01:29:36;;;;;;;;;;;21.80;60.60;;;;;;6292963;28;19916;-72
2023/06/16 01:32:36;;;;;;;;;;;21.80;60.60;;;;;;6268447;28;19912;-72
2023/06/16 01:35:38;;;;;;;;;;;21.80;60.60;;;;;;6284192;28;19924;-72
2023/06/16 01:38:38;;;;;;;;;;;21.80;60.60;;;;;;6292807;28;19913;-72
2023/06/16 01:41:39;;;;;;;;;;;21.80;60.60;;;;;;6292945;28;19978;-72
2023/06/16 01:44:41;;;;;;;;;;;21.80;60.60;;;;;;6292637;28;19913;-72
2023/06/16 01:47:43;;;;;;;;;;;21.80;60.60;;;;;;6292909;28;19956;-72
2023/06/16 01:50:43;;;;;;;;;;;21.80;60.60;;;;;;6293004;28;19999;-72
2023/06/16 01:53:44;;;;;;;;;;;21.80;60.60;;;;;;6292467;28;19923;-72
2023/06/16 01:56:44;;;;;;;;;;;21.80;60.60;;;;;;6292583;28;19916;-72
2023/06/16 01:59:46;;;;;;;;;;;21.80;60.70;;;;;;6293252;28;19935;-72
2023/06/16 02:02:51;;;;;;;;;;;21.80;60.70;;;;;;6291537;28;19916;-72
2023/06/16 02:05:53;;;;;;;;;;;21.80;60.70;;;;;;6292212;28;19908;-73
2023/06/16 02:08:55;;;;;;;;;;;21.80;60.70;;;;;;6293584;28;19920;-72
2023/06/16 02:11:56;;;;;;;;;;;21.80;60.70;;;;;;6292456;28;20267;-72
2023/06/16 02:14:56;;;;;;;;;;;21.80;60.70;;;;;;6296053;28;19912;-72
2023/06/16 02:17:57;;;;;;;;;;;21.80;60.70;;;;;;6296593;28;19962;-72
2023/06/16 02:20:58;;;;;;;;;;;21.80;60.70;;;;;;6297046;28;19915;-72
2023/06/16 02:23:59;;;;;;;;;;;21.80;60.70;;;;;;6296997;28;19948;-72
2023/06/16 02:26:59;;;;;;;;;;;21.80;60.70;;;;;;6297015;28;19960;-72
2023/06/16 02:30:00;;;;;;;;;;;21.80;60.70;;;;;;6297076;28;19908;-72
2023/06/16 02:33:00;;;;;;;;;;;21.80;60.80;;;;;;6296609;28;19909;-72
2023/06/16 02:36:01;;;;;;;;;;;21.80;60.80;;;;;;6296860;28;19971;-72
2023/06/16 02:39:01;;;;;;;;;;;21.80;60.80;;;;;;6296796;28;19995;-72
2023/06/16 02:42:02;;;;;;;;;;;21.80;60.80;;;;;;6296879;28;19908;-72
2023/06/16 02:45:02;;;;;;;;;;;21.80;60.80;;;;;;6296884;28;19913;-72
2023/06/16 02:48:03;;;;;;;;;;;21.80;60.80;;;;;;6296187;28;20347;-72
2023/06/16 02:51:03;;;;;;;;;;;21.80;60.80;;;;;;6296854;28;19966;-72
2023/06/16 02:54:04;;;;;;;;;;;21.80;60.80;;;;;;6296648;28;20120;-72
2023/06/16 02:57:05;;;;;;;;;;;21.80;60.80;;;;;;6296162;28;20011;-72
2023/06/16 03:00:09;;;;;;;;;;;21.80;60.80;;;;;;6296200;28;20054;-72
2023/06/16 03:03:09;;;;;;;;;;;21.80;60.80;;;;;;6296338;28;19947;-72
2023/06/16 03:06:10;;;;;;;;;;;21.80;60.80;;;;;;6296460;28;20011;-72
2023/06/16 03:09:11;;;;;;;;;;;21.80;60.90;;;;;;6296210;28;19908;-72
2023/06/16 03:12:12;;;;;;;;;;;21.80;60.80;;;;;;6295826;28;19912;-72
2023/06/16 03:15:12;;;;;;;;;;;21.80;60.90;;;;;;6296269;28;19916;-72
2023/06/16 03:18:13;;;;;;;;;;;21.80;60.80;;;;;;6296111;28;19916;-72
2023/06/16 03:21:16;;;;;;;;;;;21.80;60.80;;;;;;6295928;28;20306;-72
2023/06/16 03:24:16;;;;;;;;;;;21.80;60.80;;;;;;6295019;28;19913;-73
2023/06/16 03:27:17;;;;;;;;;;;21.80;60.80;;;;;;6295300;28;20572;-72
2023/06/16 03:30:18;;;;;;;;;;;21.80;60.90;;;;;;6295511;28;20011;-72
2023/06/16 03:33:19;;;;;;;;;;;21.80;60.90;;;;;;6295373;28;19995;-72
2023/06/16 03:36:19;;;;;;;;;;;21.80;60.90;;;;;;6295551;28;19920;-72
2023/06/16 03:39:20;;;;;;;;;;;21.80;60.80;;;;;;6294900;28;19909;-72
2023/06/16 03:42:20;;;;;;;;;;;21.80;60.90;;;;;;6295773;28;19956;-72
2023/06/16 03:45:21;;;;;;;;;;;21.80;60.90;;;;;;6295539;28;19908;-72
2023/06/16 03:48:21;;;;;;;;;;;21.80;60.90;;;;;;6295083;28;20002;-72
2023/06/16 03:51:24;;;;;;;;;;;21.80;60.90;;;;;;6295629;28;19963;-72
2023/06/16 03:54:26;;;;;;;;;;;21.80;60.90;;;;;;6295151;28;19916;-72
2023/06/16 03:57:26;;;;;;;;;;;21.80;60.90;;;;;;6293657;28;19923;-72
2023/06/16 04:00:33;;;;;;;;;;;21.80;60.90;;;;;;6295041;28;20283;-72
2023/06/16 04:03:33;;;;;;;;;;;21.80;60.90;;;;;;6294829;28;20056;-72
2023/06/16 04:06:34;;;;;;;;;;;21.80;60.90;;;;;;6294791;28;19912;-72
2023/06/16 04:09:35;;;;;;;;;;;21.80;60.90;;;;;;6295109;28;20249;-72
2023/06/16 04:12:35;;;;;;;;;;;21.80;60.90;;;;;;6294856;28;19919;-72
2023/06/16 04:15:36;;;;;;;;;;;21.80;60.90;;;;;;6294545;28;19909;-72
2023/06/16 04:18:36;;;;;;;;;;;21.80;60.90;;;;;;6294075;28;20370;-72
2023/06/16 04:21:37;;;;;;;;;;;21.80;60.90;;;;;;6294312;28;19912;-72
2023/06/16 04:24:38;;;;;;;;;;;21.80;60.90;;;;;;6294521;28;20201;-72
2023/06/16 04:27:39;;;;;;;;;;;21.80;61.00;;;;;;6293781;28;19973;-72
2023/06/16 04:30:40;;;;;;;;;;;21.80;60.90;;;;;;6294493;28;20011;-72
2023/06/16 04:33:41;;;;;;;;;;;21.80;61.00;;;;;;6293987;28;20413;-72
2023/06/16 04:36:44;;;;;;;;;;;21.80;60.90;;;;;;6293932;28;19916;-72
2023/06/16 04:39:44;;;;;;;;;;;21.80;60.90;;;;;;6294151;28;19912;-72
2023/06/16 04:42:45;;;;;;;;;;;21.80;61.00;;;;;;6294237;28;19920;-72
2023/06/16 04:45:45;;;;;;;;;;;21.80;61.00;;;;;;6293976;28;19912;-72
2023/06/16 04:48:46;;;;;;;;;;;21.80;60.90;;;;;;6295233;28;20003;-72
2023/06/16 04:51:46;;;;;;;;;;;21.80;60.90;;;;;;6294063;28;19909;-72
2023/06/16 04:54:47;;;;;;;;;;;21.80;60.90;;;;;;6293787;28;20414;-72
2023/06/16 04:57:48;;;;;;;;;;;21.80;60.90;;;;;;6293519;28;20363;-71
2023/06/16 05:00:48;;;;;;;;;;;21.80;61.80;;;;;;6291641;28;19962;-72
2023/06/16 05:03:48;;;;;;;;;;;21.80;61.00;;;;;;6293541;28;20386;-72
2023/06/16 05:06:49;;;;;;;;;;;21.80;60.90;;;;;;6293490;28;19909;-72
2023/06/16 05:09:50;;;;;;;;;;;21.80;61.00;;;;;;6285675;28;19916;-72
2023/06/16 05:12:50;;;;;;;;;;;21.80;61.00;;;;;;6254768;28;20037;-72
2023/06/16 05:15:51;;;;;;;;;;;21.80;61.00;;;;;;6267011;28;20213;-72
2023/06/16 05:18:51;;;;;;;;;;;21.80;61.00;;;;;;6268500;28;20275;-73
2023/06/16 05:21:52;;;;;;;;;;;21.80;61.00;;;;;;6267611;28;19978;-71
2023/06/16 05:24:56;;;;;;;;;;;21.80;61.00;;;;;;6267531;28;19941;-72
2023/06/16 05:27:56;;;;;;;;;;;21.80;61.00;;;;;;6267202;28;19916;-72
2023/06/16 05:30:56;;;;;;;;;;;21.80;61.00;;;;;;6263105;28;19914;-72
2023/06/16 05:33:57;;;;;;;;;;;21.80;60.90;;;;;;6259001;28;19913;-72
2023/06/16 05:36:57;;;;;;;;;;;21.80;61.00;;;;;;6260518;28;19925;-71
2023/06/16 05:39:58;;;;;;;;;;;21.80;61.00;;;;;;6265298;28;20000;-72
2023/06/16 05:42:59;;;;;;;;;;;21.80;60.90;;;;;;6265758;28;19920;-72
2023/06/16 05:45:59;;;;;;;;;;;21.80;60.80;;;;;;6266569;28;19952;-72
2023/06/16 05:49:00;;;;;;;;;;;21.80;60.90;;;;;;6269500;28;19967;-72
2023/06/16 05:52:02;;;;;;;;;;;21.80;60.90;;;;;;6272290;28;19909;-72
2023/06/16 05:55:02;;;;;;;;;;;21.80;60.90;;;;;;6272108;28;20383;-72
2023/06/16 05:58:03;;;;;;;;;;;21.80;60.90;;;;;;6272250;28;19923;-72
2023/06/16 06:01:04;;;;;;;;;;;21.80;60.90;;;;;;6266231;28;19916;-72
2023/06/16 06:04:04;;;;;;;;;;;21.80;60.90;;;;;;6273307;28;19928;-72
2023/06/16 06:07:05;;;;;;;;;;;21.80;60.90;;;;;;6271771;28;19913;-72
2023/06/16 06:10:06;;;;;;;;;;;21.80;61.00;;;;;;6269016;28;19913;-72
2023/06/16 06:13:07;;;;;;;;;;;21.80;61.00;;;;;;6260461;28;19916;-72
2023/06/16 06:16:07;;;;;;;;;;;21.80;61.00;;;;;;6263464;28;19921;-72
2023/06/16 06:19:08;;;;;;;;;;;21.80;61.00;;;;;;6268412;28;19988;-72
2023/06/16 06:22:08;;;;;;;;;;;21.80;61.00;;;;;;6273166;28;20359;-72
2023/06/16 06:25:09;;;;;;;;;;;21.80;61.00;;;;;;6273156;28;20252;-71
2023/06/16 06:28:10;;;;;;;;;;;21.80;61.00;;;;;;6273651;28;19908;-72
2023/06/16 06:31:10;;;;;;;;;;;21.80;61.00;;;;;;6273585;28;19909;-72
2023/06/16 06:34:11;;;;;;;;;;;21.80;61.00;;;;;;6272738;28;20287;-72
2023/06/16 06:37:16;;;;;;;;;;;21.80;61.00;;;;;;6273694;28;19955;-72
2023/06/16 06:40:16;;;;;;;;;;;21.80;61.00;;;;;;6275369;28;20295;-72
2023/06/16 06:43:17;;;;;;;;;;;21.80;61.00;;;;;;6273090;28;19924;-71
2023/06/16 06:46:18;;;;;;;;;;;21.80;61.00;;;;;;6273825;28;20011;-71
2023/06/16 06:49:18;;;;;;;;;;;21.80;61.00;;;;;;6274762;28;20473;-71
2023/06/16 06:52:19;;;;;;;;;;;21.80;61.10;;;;;;6274424;28;19912;-71
2023/06/16 06:55:20;;;;;;;;;;;21.90;61.00;;;;;;6273934;28;20004;-71
2023/06/16 06:58:20;;;;;;;;;;;21.90;61.20;;;;;;6274288;28;19916;-71
2023/06/16 07:01:21;;;;;;;;;;;21.90;61.80;;;;;;6274406;28;19908;-72
2023/06/16 07:04:21;;;;;;;;;;;21.90;61.60;;;;;;6273604;28;19986;-72
2023/06/16 07:07:22;;;;;;;;;;;22.00;61.40;;;;;;6262212;28;20331;-71
2023/06/16 07:10:25;;;;;;;;;;;22.00;61.40;;;;;;6276200;28;20200;-71
2023/06/16 07:13:25;;;;;;;;;;;22.00;61.40;;;;;;6273669;28;19908;-72
2023/06/16 07:16:26;;;;;;;;;;;22.00;61.40;;;;;;6273727;28;19959;-72
2023/06/16 07:19:26;;;;;;;;;;;22.10;61.40;;;;;;6273794;28;20311;-72
2023/06/16 07:22:28;;;;;;;;;;;22.00;61.20;;;;;;6273891;28;19909;-71
2023/06/16 07:25:32;;;;;;;;;;;22.10;61.40;;;;;;6273707;28;19909;-72
2023/06/16 07:28:32;;;;;;;;;;;22.00;61.20;;;;;;6273381;28;19909;-71
2023/06/16 07:31:33;;;;;;;;;;;22.00;61.20;;;;;;6273908;28;19909;-71
2023/06/16 07:34:33;;;;;;;;;;;22.00;61.10;;;;;;6273336;28;19958;-71
2023/06/16 07:37:34;;;;;;;;;;;22.10;61.20;;;;;;6272445;28;19940;-72
2023/06/16 07:40:34;;;;;;;;;;;22.10;61.20;;;;;;6272850;28;19924;-73
2023/06/16 07:43:35;;;;;;;;;;;22.10;61.20;;;;;;6273245;28;19916;-70
2023/06/16 07:46:36;;;;;;;;;;;22.20;62.50;;;;;;6273188;28;19931;-71
2023/06/16 07:49:36;;;;;;;;;;;22.20;62.00;;;;;;6272979;28;19953;-70
2023/06/16 07:52:38;;;;;;;;;;;22.30;62.00;;;;;;6273152;28;20011;-70
2023/06/16 07:55:38;;;;;;;;;;;22.30;62.20;;;;;;6272968;28;19915;-70
2023/06/16 07:58:39;;;;;;;;;;;22.40;63.20;;;;;;6273042;28;19913;-69
2023/06/16 08:01:42;;;;;;;;;;;22.40;62.20;;;;;;6272246;28;19916;-71
2023/06/16 08:04:42;;;;;;;;;;;22.40;63.10;;;;;;6267649;28;19939;-71
2023/06/16 08:07:43;;;;;;;;;;;22.40;61.60;;;;;;6273017;28;19913;-72
2023/06/16 08:10:44;;;;;;;;;;;22.30;61.50;;;;;;6272013;28;20271;-72
2023/06/16 08:13:44;;;;;;;;;;;22.30;61.50;;;;;;6273676;28;20015;-71
2023/06/16 08:16:45;;;;;;;;;;;22.20;61.40;;;;;;6271736;28;20295;-72
2023/06/16 08:19:46;;;;;;;;;;;22.30;61.60;;;;;;6266416;28;19920;-72
2023/06/16 08:22:46;;;;;;;;;;;22.30;61.60;;;;;;6272629;28;20665;-72
2023/06/16 08:25:47;;;;;;;;;;;22.30;61.60;;;;;;6272131;28;19912;-72
2023/06/16 08:28:50;;;;;;;;;;;22.20;61.40;;;;;;6272655;28;19997;-72
2023/06/16 08:31:50;;;;;;;;;;;22.20;61.40;;;;;;6272330;28;19909;-72
2023/06/16 08:34:51;;;;;;;;;;;22.30;61.50;;;;;;6270980;28;20311;-72
2023/06/16 08:37:51;;;;;;;;;;;22.30;61.40;;;;;;6272118;28;19913;-72
2023/06/16 08:40:52;;;;;;;;;;;22.20;61.30;;;;;;6272121;28;20006;-72
2023/06/16 08:43:52;;;;;;;;;;;22.20;61.30;;;;;;6271683;28;19995;-72
2023/06/16 08:46:53;;;;;;;;;;;22.20;61.20;;;;;;6271675;28;19917;-72
2023/06/16 08:49:54;;;;;;;;;;;22.20;61.30;;;;;;6271830;28;19912;-73
2023/06/16 08:52:57;;;;;;;;;;;22.30;61.30;;;;;;6272150;28;19913;-72
2023/06/16 08:55:58;;;;;;;;;;;22.20;61.20;;;;;;6271045;28;20381;-72
2023/06/16 08:59:03;;;;;;;;;;;22.20;61.20;;;;;;6272321;28;19909;-72
2023/06/16 09:02:04;;;;;;;;;;;22.30;61.30;;;;;;6271513;28;19909;-72
2023/06/16 09:05:05;;;;;;;;;;;22.20;61.20;;;;;;6271015;28;20360;-72
2023/06/16 09:08:05;;;;;;;;;;;22.30;61.30;;;;;;6272020;28;19917;-72
2023/06/16 09:11:07;;;;;;;;;;;22.30;61.30;;;;;;6271252;28;19909;-72
2023/06/16 09:14:10;;;;;;;;;;;22.20;61.30;;;;;;6271608;28;19912;-71
2023/06/16 09:17:12;;;;;;;;;;;22.30;61.60;;;;;;6270711;28;19913;-72
2023/06/16 09:20:13;;;;;;;;;;;22.30;61.30;;;;;;6270868;28;20363;-72
2023/06/16 09:23:14;;;;;;;;;;;22.30;61.40;;;;;;6269678;28;19916;-72
2023/06/16 09:26:15;;;;;;;;;;;22.30;61.60;;;;;;6270481;28;19974;-72
2023/06/16 09:29:22;;;;;;;;;;;22.40;61.60;;;;;;6269847;28;20414;-71
2023/06/16 09:32:23;;;;;;;;;;;22.40;61.00;;;;;;6266567;28;20449;-72
2023/06/16 09:35:24;;;;;;;;;;;22.50;61.30;;;;;;6267486;28;19913;-72
2023/06/16 09:38:25;;;;;;;;;;;22.40;61.30;;;;;;6270580;28;19916;-72
2023/06/16 09:41:25;;;;;;;;;;;22.40;61.50;;;;;;6266761;28;19915;-72
2023/06/16 09:44:26;;;;;;;;;;;22.30;61.40;;;;;;6271078;28;20334;-73
2023/06/16 09:47:29;;;;;;;;;;;22.30;61.30;;;;;;6270857;28;19909;-72
2023/06/16 09:50:30;;;;;;;;;;;22.30;61.30;;;;;;6271099;28;20004;-72
2023/06/16 09:53:37;;;;;;;;;;;22.30;61.30;;;;;;6270141;28;19909;-72
2023/06/16 09:56:38;;;;;;;;;;;22.30;61.20;;;;;;6270435;28;20015;-72
2023/06/16 09:59:40;;;;;;;;;;;22.30;61.30;;;;;;6270893;28;19909;-72
2023/06/16 10:02:41;;;;;;;;;;;22.30;61.30;;;;;;6270215;28;20433;-72
2023/06/16 10:05:42;;;;;;;;;;;22.30;61.30;;;;;;6270677;28;19912;-72
2023/06/16 10:08:43;;;;;;;;;;;22.30;61.30;;;;;;6270546;28;19909;-73
2023/06/16 10:11:46;;;;;;;;;;;22.30;61.40;;;;;;6270057;28;20422;-72
2023/06/16 10:14:47;;;;;;;;;;;22.30;61.40;;;;;;6270529;28;19973;-72
2023/06/16 10:17:48;;;;;;;;;;;22.30;61.40;;;;;;6268619;28;20006;-72
2023/06/16 10:20:49;;;;;;;;;;;22.20;61.30;;;;;;6270567;28;20691;-72
2023/06/16 10:23:51;;;;;;;;;;;22.20;61.40;;;;;;6269457;28;19909;-73
2023/06/16 10:26:52;;;;;;;;;;;22.20;61.50;;;;;;6270232;28;19913;-72
2023/06/16 10:29:53;;;;;;;;;;;22.20;61.60;;;;;;6270351;28;20002;-72
2023/06/16 10:32:56;;;;;;;;;;;22.20;61.70;;;;;;6270143;28;19963;-72
2023/06/16 10:35:57;;;;;;;;;;;22.10;61.60;;;;;;6274069;28;20030;-72
2023/06/16 10:38:58;;;;;;;;;;;22.10;61.60;;;;;;6274587;28;20296;-73
2023/06/16 10:42:00;;;;;;;;;;;22.10;61.70;;;;;;6274056;28;20513;-72
2023/06/16 10:45:19;;;;;;;;;;;22.10;61.70;;;;;;6271165;28;20286;-72
2023/06/16 10:48:19;;;;;;;;;;;22.20;61.80;;;;;;6274444;28;19913;-72
2023/06/16 10:51:38;;;;;;;;;;;22.10;61.80;;;;;;6274504;28;19967;-72
2023/06/16 10:54:45;;;;;;;;;;;22.10;61.80;;;;;;6274624;28;19909;-72
2023/06/16 10:57:56;;;;;;;;;;;22.20;61.90;;;;;;6274043;28;19924;-72
2023/06/16 11:00:56;;;;;;;;;;;22.10;61.80;;;;;;6272867;28;19916;-72
2023/06/16 11:04:01;;;;;;;;;;;22.10;61.80;;;;;;6270854;28;19964;-73
2023/06/16 11:07:06;;;;;;;;;;;22.10;61.80;;;;;;6270765;28;20323;-72
2023/06/16 11:10:08;;;;;;;;;;;22.10;61.80;;;;;;6271563;28;19908;-72
2023/06/16 11:13:12;;;;;;;;;;;22.10;61.80;;;;;;6270947;28;20024;-72
2023/06/16 11:16:12;;;;;;;;;;;22.10;61.80;;;;;;6271396;28;19959;-73
2023/06/16 11:19:16;;;;;;;;;;;22.10;61.90;;;;;;6269785;28;19913;-72
2023/06/16 11:22:25;;;;;;;;;;;22.10;61.80;;;;;;6271334;28;19915;-72
2023/06/16 11:25:26;;;;;;;;;;;22.10;61.90;;;;;;6269908;28;20628;-72
2023/06/16 11:28:26;;;;;;;;;;;22.00;61.80;;;;;;6270800;28;19909;-72
2023/06/16 11:31:28;;;;;;;;;;;22.00;61.80;;;;;;6271590;28;19991;-73
2023/06/16 11:34:29;;;;;;;;;;;22.10;61.90;;;;;;6270657;28;20695;-72
2023/06/16 11:37:41;;;;;;;;;;;22.10;61.90;;;;;;6271169;28;19967;-73
2023/06/16 11:40:42;;;;;;;;;;;22.00;61.80;;;;;;6270531;28;20334;-72
2023/06/16 11:43:43;;;;;;;;;;;22.00;61.80;;;;;;6270272;28;19965;-72
2023/06/16 11:46:43;;;;;;;;;;;22.00;61.90;;;;;;6270178;28;19954;-72
2023/06/16 11:49:44;;;;;;;;;;;22.00;61.80;;;;;;6270811;28;19909;-72
2023/06/16 11:52:45;;;;;;;;;;;22.00;61.90;;;;;;6270990;28;19938;-72
2023/06/16 11:55:50;;;;;;;;;;;22.00;61.90;;;;;;6270814;28;19913;-72
2023/06/16 11:58:52;;;;;;;;;;;22.00;61.80;;;;;;6270538;28;20007;-73
2023/06/16 12:01:53;;;;;;;;;;;22.00;61.90;;;;;;6271043;28;19909;-72
2023/06/16 12:04:53;;;;;;;;;;;22.00;61.90;;;;;;6270316;28;19951;-72
2023/06/16 12:07:54;;;;;;;;;;;22.00;61.90;;;;;;6270463;28;19966;-72
2023/06/16 12:10:55;;;;;;;;;;;22.00;61.80;;;;;;6270054;28;20366;-73
2023/06/16 12:13:56;;;;;;;;;;;22.00;61.80;;;;;;6267614;28;19959;-72
2023/06/16 12:16:57;;;;;;;;;;;22.00;61.80;;;;;;6267405;28;19921;-72
2023/06/16 12:19:57;;;;;;;;;;;22.00;61.80;;;;;;6268520;28;19924;-73
2023/06/16 12:22:58;;;;;;;;;;;22.00;61.90;;;;;;6267935;28;19909;-72
2023/06/16 12:25:59;;;;;;;;;;;22.00;61.90;;;;;;6268046;28;19909;-72
2023/06/16 12:29:01;;;;;;;;;;;22.00;61.90;;;;;;6268845;28;19963;-72
2023/06/16 12:32:05;;;;;;;;;;;22.00;61.90;;;;;;6269115;28;20009;-72
2023/06/16 12:35:05;;;;;;;;;;;22.00;61.90;;;;;;6268466;28;19908;-72
2023/06/16 12:38:06;;;;;;;;;;;22.00;61.90;;;;;;6269038;28;19917;-72
2023/06/16 12:41:11;;;;;;;;;;;22.00;61.90;;;;;;6268608;28;20315;-72
2023/06/16 12:44:11;;;;;;;;;;;22.00;62.00;;;;;;6268629;28;19931;-72
2023/06/16 12:47:16;;;;;;;;;;;22.00;61.90;;;;;;6268828;28;19913;-72
2023/06/16 12:50:16;;;;;;;;;;;22.00;61.90;;;;;;6268185;28;20433;-73
2023/06/16 12:53:17;;;;;;;;;;;22.00;61.90;;;;;;6268464;28;19999;-72
2023/06/16 12:56:17;;;;;;;;;;;22.00;61.90;;;;;;6268501;28;20383;-73
2023/06/16 12:59:18;;;;;;;;;;;22.00;62.00;;;;;;6256702;28;19921;-72
2023/06/16 13:02:19;;;;;;;;;;;22.00;61.90;;;;;;6267423;28;19978;-73
2023/06/16 13:05:21;;;;;;;;;;;22.00;61.90;;;;;;6268062;28;19909;-72
2023/06/16 13:08:21;;;;;;;;;;;22.00;62.00;;;;;;6267986;28;20388;-72
2023/06/16 13:11:22;;;;;;;;;;;22.00;61.90;;;;;;6268115;28;19967;-72
2023/06/16 13:14:23;;;;;;;;;;;22.00;61.90;;;;;;6267496;28;19913;-72
2023/06/16 13:17:24;;;;;;;;;;;22.00;62.00;;;;;;6268176;28;20375;-72
2023/06/16 13:20:25;;;;;;;;;;;22.00;61.90;;;;;;6267057;28;19932;-72
2023/06/16 13:23:26;;;;;;;;;;;22.00;62.00;;;;;;6267103;28;19909;-72
2023/06/16 13:26:26;;;;;;;;;;;22.00;61.90;;;;;;6267362;28;20386;-73
2023/06/16 13:29:27;;;;;;;;;;;22.00;61.90;;;;;;6268233;28;19951;-72
2023/06/16 13:32:27;;;;;;;;;;;22.00;62.00;;;;;;6267904;28;19962;-73
2023/06/16 13:35:28;;;;;;;;;;;22.00;61.90;;;;;;6267993;28;19913;-73
2023/06/16 13:38:28;;;;;;;;;;;22.00;61.90;;;;;;6267799;28;20368;-73
2023/06/16 13:41:29;;;;;;;;;;;22.00;62.00;;;;;;6266301;28;19919;-73
2023/06/16 13:44:29;;;;;;;;;;;22.00;61.90;;;;;;6266484;28;19917;-73
2023/06/16 13:47:30;;;;;;;;;;;22.00;62.00;;;;;;6267218;28;19974;-72
2023/06/16 13:50:30;;;;;;;;;;;22.00;61.90;;;;;;6267629;28;20003;-73
2023/06/16 13:53:31;;;;;;;;;;;22.00;62.00;;;;;;6266578;28;19908;-72
2023/06/16 13:56:31;;;;;;;;;;;22.00;62.00;;;;;;6266849;28;20252;-73
2023/06/16 13:59:32;;;;;;;;;;;22.00;62.00;;;;;;6264006;28;20558;-72
2023/06/16 14:02:32;;;;;;;;;;;22.00;62.00;;;;;;6263598;28;20389;-72
2023/06/16 14:05:33;;;;;;;;;;;22.00;62.00;;;;;;6262959;28;19913;-72
2023/06/16 14:08:33;;;;;;;;;;;21.90;61.90;;;;;;6264754;28;20263;-72
2023/06/16 14:11:34;;;;;;;;;;;22.00;62.00;;;;;;6257310;28;19908;-73
2023/06/16 14:14:34;;;;;;;;;;;22.00;62.00;;;;;;6269211;28;19908;-72
2023/06/16 14:17:36;;;;;;;;;;;21.90;61.90;;;;;;6271553;28;19952;-72
2023/06/16 14:20:37;;;;;;;;;;;22.00;61.90;;;;;;6269963;28;19913;-72
2023/06/16 14:23:37;;;;;;;;;;;22.00;61.90;;;;;;6267616;28;19943;-73
2023/06/16 14:26:37;;;;;;;;;;;22.00;61.90;;;;;;6268363;28;19916;-72
2023/06/16 14:29:38;;;;;;;;;;;22.00;61.90;;;;;;6268478;28;19913;-73
2023/06/16 14:32:40;;;;;;;;;;;22.00;61.90;;;;;;6267911;28;19913;-73
2023/06/16 14:35:40;;;;;;;;;;;21.90;61.80;;;;;;6268906;28;19915;-73
2023/06/16 14:38:41;;;;;;;;;;;22.00;62.00;;;;;;6268489;28;19916;-72
2023/06/16 14:41:41;;;;;;;;;;;21.90;61.80;;;;;;6268368;28;20327;-72
2023/06/16 14:44:42;;;;;;;;;;;21.90;61.80;;;;;;6270089;28;20008;-72
2023/06/16 14:47:42;;;;;;;;;;;21.90;61.90;;;;;;6272730;28;19909;-73
2023/06/16 14:50:42;;;;;;;;;;;21.90;61.80;;;;;;6273534;28;19909;-73
2023/06/16 14:53:43;;;;;;;;;;;21.90;61.90;;;;;;6272310;28;20020;-73
2023/06/16 14:56:43;;;;;;;;;;;22.00;61.90;;;;;;6270368;28;19986;-72
2023/06/16 14:59:44;;;;;;;;;;;21.90;62.00;;;;;;6277178;28;19987;-72
2023/06/16 15:02:44;;;;;;;;;;;22.00;61.90;;;;;;6265424;28;20692;-73
2023/06/16 15:05:45;;;;;;;;;;;22.00;61.60;;;;;;6273258;28;19916;-73
2023/06/16 15:08:45;;;;;;;;;;;22.00;61.60;;;;;;6261500;28;19909;-72
2023/06/16 15:11:46;;;;;;;;;;;22.00;61.90;;;;;;6273371;28;19909;-74
2023/06/16 15:14:47;;;;;;;;;;;22.20;61.40;;;;;;6270256;28;20303;-72
2023/06/16 15:17:47;;;;;;;;;;;22.30;61.60;;;;;;6249580;28;19916;-72
2023/06/16 15:20:48;;;;;;;;;;;22.20;61.50;;;;;;6265182;28;19921;-72
2023/06/16 15:23:48;;;;;;;;;;;22.20;61.40;;;;;;6270577;28;19909;-72
2023/06/16 15:26:50;;;;;;;;;;;22.20;61.50;;;;;;6270557;28;19909;-71
2023/06/16 15:29:51;;;;;;;;;;;22.20;61.60;;;;;;6269576;28;20314;-72
2023/06/16 15:32:52;;;;;;;;;;;22.20;61.50;;;;;;6268876;28;19916;-72
2023/06/16 15:35:52;;;;;;;;;;;22.10;61.40;;;;;;6269513;28;19990;-72
2023/06/16 15:38:54;;;;;;;;;;;22.20;61.50;;;;;;6269517;28;19921;-72
2023/06/16 15:41:54;;;;;;;;;;;22.10;61.40;;;;;;6269624;28;19912;-72
2023/06/16 15:44:55;;;;;;;;;;;22.10;61.40;;;;;;6256144;28;19917;-72
2023/06/16 15:47:56;;;;;;;;;;;22.20;61.40;;;;;;6269918;28;19920;-72
2023/06/16 15:50:56;;;;;;;;;;;22.20;61.40;;;;;;6270207;28;20638;-72
2023/06/16 15:53:57;;;;;;;;;;;22.10;61.40;;;;;;6268649;28;19917;-72
2023/06/16 15:56:59;;;;;;;;;;;22.10;61.50;;;;;;6268177;28;19944;-72
2023/06/16 16:00:00;;;;;;;;;;;22.10;61.50;;;;;;6268162;28;19935;-71
2023/06/16 16:03:00;;;;;;;;;;;22.10;61.50;;;;;;6267321;28;20008;-72
2023/06/16 16:06:01;;;;;;;;;;;22.10;61.50;;;;;;6267722;28;19913;-72
2023/06/16 16:09:02;;;;;;;;;;;22.10;62.40;;;;;;6267886;28;19935;-72
2023/06/16 16:12:02;;;;;;;;;;;22.10;61.60;;;;;;6268312;28;19961;-72
2023/06/16 16:15:03;;;;;;;;;;;22.10;62.60;;;;;;6265365;28;20674;-71
2023/06/16 16:18:04;;;;;;;;;;;22.10;61.60;;;;;;6265290;28;19963;-71
2023/06/16 16:21:04;;;;;;;;;;;22.10;61.60;;;;;;6265622;28;19913;-72
2023/06/16 16:24:09;;;;;;;;;;;22.10;61.60;;;;;;6263861;28;20363;-71
2023/06/16 16:27:09;;;;;;;;;;;22.10;61.60;;;;;;6265241;28;19913;-71
2023/06/16 16:30:10;;;;;;;;;;;22.10;61.70;;;;;;6265215;28;20053;-72
2023/06/16 16:33:10;;;;;;;;;;;22.10;61.60;;;;;;6267209;28;19943;-72
2023/06/16 16:36:11;;;;;;;;;;;22.10;61.60;;;;;;6267595;28;19919;-72
2023/06/16 16:39:11;;;;;;;;;;;22.10;61.60;;;;;;6268195;28;19912;-72
2023/06/16 16:42:12;;;;;;;;;;;22.00;61.60;;;;;;6267441;28;19917;-72
2023/06/16 16:45:12;;;;;;;;;;;22.00;61.60;;;;;;6255512;28;20342;-71
2023/06/16 16:48:13;;;;;;;;;;;22.10;61.80;;;;;;6268535;28;19913;-71
2023/06/16 16:51:14;;;;;;;;;;;22.00;61.70;;;;;;6267076;28;19909;-72
2023/06/16 16:54:14;;;;;;;;;;;22.00;61.80;;;;;;6267437;28;19912;-71
2023/06/16 16:57:15;;;;;;;;;;;22.00;61.80;;;;;;6267056;28;20295;-71
2023/06/16 17:00:15;;;;;;;;;;;22.00;61.80;;;;;;6266932;28;19915;-71
2023/06/16 17:03:16;;;;;;;;;;;22.00;61.80;;;;;;6259667;28;19921;-72
2023/06/16 17:06:16;;;;;;;;;;;22.00;62.60;;;;;;6266865;28;19913;-72
2023/06/16 17:09:17;;;;;;;;;;;22.00;61.80;;;;;;6266590;28;19920;-71
2023/06/16 17:12:17;;;;;;;;;;;22.00;61.80;;;;;;6261285;28;20011;-71
2023/06/16 17:15:18;;;;;;;;;;;22.00;61.80;;;;;;6264050;28;19959;-71
2023/06/16 17:18:18;;;;;;;;;;;22.00;61.90;;;;;;6267355;28;19916;-72
2023/06/16 17:21:19;;;;;;;;;;;22.00;61.80;;;;;;6266714;28;19920;-71
2023/06/16 17:24:20;;;;;;;;;;;22.00;62.70;;;;;;6266777;28;19909;-72
2023/06/16 17:27:20;;;;;;;;;;;22.00;61.90;;;;;;6266446;28;19915;-71
2023/06/16 17:30:21;;;;;;;;;;;22.00;61.90;;;;;;6266953;28;20003;-71
2023/06/16 17:33:21;;;;;;;;;;;22.00;61.90;;;;;;6266491;28;19908;-72